sensor_id;sensor_type;location;lat;lon;timestamp;P1;durP1;ratioP1;P2;durP2;ratioP2
32780;SDS011;19136;47.032;15.502;2023-02-22T00:00:48;11.88;;;6.30;;
32780;SDS011;19136;47.032;15.502;2023-02-22T00:03:15;16.13;;;6.18;;
32780;SDS011;19136;47.032;15.502;2023-02-22T00:05:44;13.50;;;6.53;;
32780;SDS011;19136;47.032;15.502;2023-02-22T00:08:14;18.75;;;7.10;;
32780;SDS011;19136;47.032;15.502;2023-02-22T00:10:41;11.98;;;6.35;;
32780;SDS011;19136;47.032;15.502;2023-02-22T00:13:08;12.90;;;5.93;;
32780;SDS011;19136;47.032;15.502;2023-02-22T00:15:35;13.38;;;5.85;;
32780;SDS011;19136;47.032;15.502;2023-02-22T00:18:01;19.67;;;6.88;;
32780;SDS011;19136;47.032;15.502;2023-02-22T00:20:27;17.05;;;6.53;;
32780;SDS011;19136;47.032;15.502;2023-02-22T00:22:53;14.90;;;6.93;;
32780;SDS011;19136;47.032;15.502;2023-02-22T00:25:19;12.68;;;6.40;;
32780;SDS011;19136;47.032;15.502;2023-02-22T00:27:46;15.40;;;6.70;;
32780;SDS011;19136;47.032;15.502;2023-02-22T00:30:15;14.05;;;6.97;;
32780;SDS011;19136;47.032;15.502;2023-02-22T00:32:46;12.57;;;6.15;;
32780;SDS011;19136;47.032;15.502;2023-02-22T00:35:13;12.65;;;5.93;;
32780;SDS011;19136;47.032;15.502;2023-02-22T00:37:45;12.82;;;6.57;;
32780;SDS011;19136;47.032;15.502;2023-02-22T00:40:14;15.18;;;7.15;;
32780;SDS011;19136;47.032;15.502;2023-02-22T00:42:41;13.88;;;6.35;;
32780;SDS011;19136;47.032;15.502;2023-02-22T00:45:07;22.38;;;7.20;;
32780;SDS011;19136;47.032;15.502;2023-02-22T00:47:33;13.95;;;6.63;;
32780;SDS011;19136;47.032;15.502;2023-02-22T00:49:58;14.10;;;6.53;;
32780;SDS011;19136;47.032;15.502;2023-02-22T00:52:25;17.50;;;7.07;;
32780;SDS011;19136;47.032;15.502;2023-02-22T00:54:51;18.30;;;7.40;;
32780;SDS011;19136;47.032;15.502;2023-02-22T00:57:18;16.17;;;7.45;;
32780;SDS011;19136;47.032;15.502;2023-02-22T00:59:43;15.25;;;7.25;;
32780;SDS011;19136;47.032;15.502;2023-02-22T01:02:09;12.57;;;6.45;;
32780;SDS011;19136;47.032;15.502;2023-02-22T01:04:34;18.02;;;6.82;;
32780;SDS011;19136;47.032;15.502;2023-02-22T01:07:00;14.95;;;6.85;;
32780;SDS011;19136;47.032;15.502;2023-02-22T01:09:25;18.80;;;6.53;;
32780;SDS011;19136;47.032;15.502;2023-02-22T01:11:51;11.15;;;5.97;;
32780;SDS011;19136;47.032;15.502;2023-02-22T01:14:21;15.32;;;6.82;;
32780;SDS011;19136;47.032;15.502;2023-02-22T01:16:48;12.10;;;5.80;;
32780;SDS011;19136;47.032;15.502;2023-02-22T01:19:15;16.58;;;6.38;;
32780;SDS011;19136;47.032;15.502;2023-02-22T01:21:41;16.33;;;6.60;;
32780;SDS011;19136;47.032;15.502;2023-02-22T01:24:07;12.05;;;6.10;;
32780;SDS011;19136;47.032;15.502;2023-02-22T01:26:32;13.65;;;5.70;;
32780;SDS011;19136;47.032;15.502;2023-02-22T01:28:58;14.38;;;6.47;;
32780;SDS011;19136;47.032;15.502;2023-02-22T01:31:23;11.00;;;5.63;;
32780;SDS011;19136;47.032;15.502;2023-02-22T01:33:49;13.65;;;6.00;;
32780;SDS011;19136;47.032;15.502;2023-02-22T01:36:17;12.88;;;6.35;;
32780;SDS011;19136;47.032;15.502;2023-02-22T01:38:43;14.32;;;7.05;;
32780;SDS011;19136;47.032;15.502;2023-02-22T01:41:09;14.10;;;6.78;;
32780;SDS011;19136;47.032;15.502;2023-02-22T01:43:35;15.57;;;6.18;;
32780;SDS011;19136;47.032;15.502;2023-02-22T01:46:02;10.23;;;5.30;;
32780;SDS011;19136;47.032;15.502;2023-02-22T01:49:03;10.20;;;5.95;;
32780;SDS011;19136;47.032;15.502;2023-02-22T01:51:38;11.27;;;5.28;;
32780;SDS011;19136;47.032;15.502;2023-02-22T01:56:51;11.55;;;5.60;;
32780;SDS011;19136;47.032;15.502;2023-02-22T01:59:21;11.48;;;5.53;;
32780;SDS011;19136;47.032;15.502;2023-02-22T02:01:46;13.57;;;6.05;;
32780;SDS011;19136;47.032;15.502;2023-02-22T02:04:18;12.63;;;5.88;;
32780;SDS011;19136;47.032;15.502;2023-02-22T02:06:45;12.88;;;5.40;;
32780;SDS011;19136;47.032;15.502;2023-02-22T02:11:55;9.85;;;5.05;;
32780;SDS011;19136;47.032;15.502;2023-02-22T02:14:24;11.63;;;5.05;;
32780;SDS011;19136;47.032;15.502;2023-02-22T02:16:50;15.50;;;4.95;;
32780;SDS011;19136;47.032;15.502;2023-02-22T02:20:06;14.88;;;5.03;;
32780;SDS011;19136;47.032;15.502;2023-02-22T02:24:55;13.07;;;4.82;;
32780;SDS011;19136;47.032;15.502;2023-02-22T02:31:04;13.50;;;4.75;;
32780;SDS011;19136;47.032;15.502;2023-02-22T02:33:59;8.43;;;4.43;;
32780;SDS011;19136;47.032;15.502;2023-02-22T02:36:37;8.82;;;4.38;;
32780;SDS011;19136;47.032;15.502;2023-02-22T02:42:08;10.13;;;4.30;;
32780;SDS011;19136;47.032;15.502;2023-02-22T02:44:46;9.90;;;4.55;;
32780;SDS011;19136;47.032;15.502;2023-02-22T02:47:31;8.60;;;4.35;;
32780;SDS011;19136;47.032;15.502;2023-02-22T02:50:09;11.23;;;4.90;;
32780;SDS011;19136;47.032;15.502;2023-02-22T02:52:38;11.55;;;4.32;;
32780;SDS011;19136;47.032;15.502;2023-02-22T02:55:06;9.57;;;4.15;;
32780;SDS011;19136;47.032;15.502;2023-02-22T02:57:32;10.65;;;4.38;;
32780;SDS011;19136;47.032;15.502;2023-02-22T02:59:57;13.10;;;3.63;;
32780;SDS011;19136;47.032;15.502;2023-02-22T03:08:16;14.23;;;4.50;;
32780;SDS011;19136;47.032;15.502;2023-02-22T03:10:52;11.17;;;4.27;;
32780;SDS011;19136;47.032;15.502;2023-02-22T03:16:18;9.18;;;4.22;;
32780;SDS011;19136;47.032;15.502;2023-02-22T03:19:13;12.02;;;3.92;;
32780;SDS011;19136;47.032;15.502;2023-02-22T03:30:27;6.57;;;3.70;;
32780;SDS011;19136;47.032;15.502;2023-02-22T03:32:59;13.57;;;4.18;;
32780;SDS011;19136;47.032;15.502;2023-02-22T03:35:34;8.95;;;4.57;;
32780;SDS011;19136;47.032;15.502;2023-02-22T03:38:02;12.07;;;4.90;;
32780;SDS011;19136;47.032;15.502;2023-02-22T03:40:30;9.40;;;4.85;;
32780;SDS011;19136;47.032;15.502;2023-02-22T03:43:04;7.43;;;3.90;;
32780;SDS011;19136;47.032;15.502;2023-02-22T03:45:31;9.95;;;3.97;;
32780;SDS011;19136;47.032;15.502;2023-02-22T03:48:05;7.40;;;3.67;;
32780;SDS011;19136;47.032;15.502;2023-02-22T03:50:34;9.25;;;4.40;;
32780;SDS011;19136;47.032;15.502;2023-02-22T03:53:01;12.40;;;4.43;;
32780;SDS011;19136;47.032;15.502;2023-02-22T03:55:27;10.50;;;4.68;;
32780;SDS011;19136;47.032;15.502;2023-02-22T03:57:59;8.00;;;4.25;;
32780;SDS011;19136;47.032;15.502;2023-02-22T04:00:29;6.20;;;3.60;;
32780;SDS011;19136;47.032;15.502;2023-02-22T04:02:55;10.48;;;3.92;;
32780;SDS011;19136;47.032;15.502;2023-02-22T04:05:21;9.43;;;4.22;;
32780;SDS011;19136;47.032;15.502;2023-02-22T04:07:48;10.65;;;4.70;;
32780;SDS011;19136;47.032;15.502;2023-02-22T04:10:15;12.45;;;4.45;;
32780;SDS011;19136;47.032;15.502;2023-02-22T04:12:41;8.52;;;4.13;;
32780;SDS011;19136;47.032;15.502;2023-02-22T04:15:07;7.65;;;3.88;;
32780;SDS011;19136;47.032;15.502;2023-02-22T04:17:33;7.05;;;3.72;;
32780;SDS011;19136;47.032;15.502;2023-02-22T04:19:59;13.35;;;4.00;;
32780;SDS011;19136;47.032;15.502;2023-02-22T04:22:24;8.75;;;4.15;;
32780;SDS011;19136;47.032;15.502;2023-02-22T04:24:50;8.60;;;4.88;;
32780;SDS011;19136;47.032;15.502;2023-02-22T04:27:15;9.35;;;4.00;;
32780;SDS011;19136;47.032;15.502;2023-02-22T04:29:41;10.18;;;4.45;;
32780;SDS011;19136;47.032;15.502;2023-02-22T04:32:07;10.75;;;4.10;;
32780;SDS011;19136;47.032;15.502;2023-02-22T04:34:32;8.73;;;4.32;;
32780;SDS011;19136;47.032;15.502;2023-02-22T04:36:58;9.80;;;4.20;;
32780;SDS011;19136;47.032;15.502;2023-02-22T04:39:23;6.47;;;3.97;;
32780;SDS011;19136;47.032;15.502;2023-02-22T04:41:49;9.10;;;4.40;;
32780;SDS011;19136;47.032;15.502;2023-02-22T04:44:14;10.15;;;4.13;;
32780;SDS011;19136;47.032;15.502;2023-02-22T04:46:40;11.00;;;4.00;;
32780;SDS011;19136;47.032;15.502;2023-02-22T04:49:05;10.65;;;4.18;;
32780;SDS011;19136;47.032;15.502;2023-02-22T04:51:31;8.98;;;3.97;;
32780;SDS011;19136;47.032;15.502;2023-02-22T04:53:56;9.02;;;4.13;;
32780;SDS011;19136;47.032;15.502;2023-02-22T04:56:22;9.15;;;4.30;;
32780;SDS011;19136;47.032;15.502;2023-02-22T04:58:48;9.00;;;4.38;;
32780;SDS011;19136;47.032;15.502;2023-02-22T05:01:14;7.60;;;3.63;;
32780;SDS011;19136;47.032;15.502;2023-02-22T05:03:40;8.68;;;4.32;;
32780;SDS011;19136;47.032;15.502;2023-02-22T05:06:06;9.30;;;3.78;;
32780;SDS011;19136;47.032;15.502;2023-02-22T05:08:32;8.93;;;4.63;;
32780;SDS011;19136;47.032;15.502;2023-02-22T05:10:58;8.48;;;4.20;;
32780;SDS011;19136;47.032;15.502;2023-02-22T05:13:24;9.52;;;4.63;;
32780;SDS011;19136;47.032;15.502;2023-02-22T05:15:49;10.95;;;3.90;;
32780;SDS011;19136;47.032;15.502;2023-02-22T05:18:15;10.35;;;4.53;;
32780;SDS011;19136;47.032;15.502;2023-02-22T05:20:40;10.23;;;4.13;;
32780;SDS011;19136;47.032;15.502;2023-02-22T05:23:06;6.95;;;4.30;;
32780;SDS011;19136;47.032;15.502;2023-02-22T05:25:32;12.02;;;5.15;;
32780;SDS011;19136;47.032;15.502;2023-02-22T05:27:59;7.78;;;4.28;;
32780;SDS011;19136;47.032;15.502;2023-02-22T05:30:28;11.77;;;5.40;;
32780;SDS011;19136;47.032;15.502;2023-02-22T05:32:55;12.55;;;5.90;;
32780;SDS011;19136;47.032;15.502;2023-02-22T05:35:21;12.23;;;5.53;;
32780;SDS011;19136;47.032;15.502;2023-02-22T05:37:47;10.80;;;5.07;;
32780;SDS011;19136;47.032;15.502;2023-02-22T05:40:18;18.17;;;4.88;;
32780;SDS011;19136;47.032;15.502;2023-02-22T05:42:45;9.35;;;4.68;;
32780;SDS011;19136;47.032;15.502;2023-02-22T05:45:14;11.32;;;4.88;;
32780;SDS011;19136;47.032;15.502;2023-02-22T05:47:41;11.43;;;5.13;;
32780;SDS011;19136;47.032;15.502;2023-02-22T05:50:07;11.55;;;5.93;;
32780;SDS011;19136;47.032;15.502;2023-02-22T05:52:33;8.70;;;5.13;;
32780;SDS011;19136;47.032;15.502;2023-02-22T05:54:58;15.75;;;7.13;;
32780;SDS011;19136;47.032;15.502;2023-02-22T05:57:24;16.23;;;6.70;;
32780;SDS011;19136;47.032;15.502;2023-02-22T05:59:49;13.32;;;5.63;;
32780;SDS011;19136;47.032;15.502;2023-02-22T06:02:15;17.50;;;5.88;;
32780;SDS011;19136;47.032;15.502;2023-02-22T06:04:44;13.95;;;5.78;;
32780;SDS011;19136;47.032;15.502;2023-02-22T06:07:10;19.85;;;5.60;;
32780;SDS011;19136;47.032;15.502;2023-02-22T06:09:36;18.02;;;5.38;;
32780;SDS011;19136;47.032;15.502;2023-02-22T06:12:01;15.80;;;5.43;;
32780;SDS011;19136;47.032;15.502;2023-02-22T06:14:28;18.40;;;5.95;;
32780;SDS011;19136;47.032;15.502;2023-02-22T06:16:54;18.00;;;6.72;;
32780;SDS011;19136;47.032;15.502;2023-02-22T06:19:20;23.17;;;7.13;;
32780;SDS011;19136;47.032;15.502;2023-02-22T06:21:49;14.60;;;5.22;;
32780;SDS011;19136;47.032;15.502;2023-02-22T06:24:16;17.52;;;7.07;;
32780;SDS011;19136;47.032;15.502;2023-02-22T06:26:41;16.90;;;8.27;;
32780;SDS011;19136;47.032;15.502;2023-02-22T06:29:07;17.50;;;8.75;;
32780;SDS011;19136;47.032;15.502;2023-02-22T06:31:33;23.70;;;10.02;;
32780;SDS011;19136;47.032;15.502;2023-02-22T06:33:59;30.40;;;14.30;;
32780;SDS011;19136;47.032;15.502;2023-02-22T06:36:24;23.92;;;12.98;;
32780;SDS011;19136;47.032;15.502;2023-02-22T06:38:50;31.50;;;12.45;;
32780;SDS011;19136;47.032;15.502;2023-02-22T06:41:15;23.70;;;10.23;;
32780;SDS011;19136;47.032;15.502;2023-02-22T06:43:41;21.25;;;10.18;;
32780;SDS011;19136;47.032;15.502;2023-02-22T06:46:09;17.88;;;9.23;;
32780;SDS011;19136;47.032;15.502;2023-02-22T06:48:36;20.30;;;8.73;;
32780;SDS011;19136;47.032;15.502;2023-02-22T06:51:02;26.35;;;9.73;;
32780;SDS011;19136;47.032;15.502;2023-02-22T06:53:28;21.20;;;8.98;;
32780;SDS011;19136;47.032;15.502;2023-02-22T06:55:54;17.38;;;8.88;;
32780;SDS011;19136;47.032;15.502;2023-02-22T06:58:19;24.00;;;9.10;;
32780;SDS011;19136;47.032;15.502;2023-02-22T07:00:45;20.80;;;8.10;;
32780;SDS011;19136;47.032;15.502;2023-02-22T07:03:10;21.80;;;9.23;;
32780;SDS011;19136;47.032;15.502;2023-02-22T07:05:38;17.13;;;8.57;;
32780;SDS011;19136;47.032;15.502;2023-02-22T07:08:04;24.40;;;9.13;;
32780;SDS011;19136;47.032;15.502;2023-02-22T07:10:31;24.70;;;8.45;;
32780;SDS011;19136;47.032;15.502;2023-02-22T07:12:58;19.00;;;8.68;;
32780;SDS011;19136;47.032;15.502;2023-02-22T07:15:25;19.08;;;8.13;;
32780;SDS011;19136;47.032;15.502;2023-02-22T07:17:52;21.83;;;9.30;;
32780;SDS011;19136;47.032;15.502;2023-02-22T07:20:18;20.42;;;8.88;;
32780;SDS011;19136;47.032;15.502;2023-02-22T07:22:45;21.38;;;9.02;;
32780;SDS011;19136;47.032;15.502;2023-02-22T07:25:11;20.65;;;9.10;;
32780;SDS011;19136;47.032;15.502;2023-02-22T07:27:39;17.50;;;7.40;;
32780;SDS011;19136;47.032;15.502;2023-02-22T07:30:06;17.67;;;7.35;;
32780;SDS011;19136;47.032;15.502;2023-02-22T07:32:34;19.90;;;7.60;;
32780;SDS011;19136;47.032;15.502;2023-02-22T07:35:00;18.77;;;8.48;;
32780;SDS011;19136;47.032;15.502;2023-02-22T07:37:27;16.23;;;7.43;;
32780;SDS011;19136;47.032;15.502;2023-02-22T07:39:52;24.30;;;8.30;;
32780;SDS011;19136;47.032;15.502;2023-02-22T07:42:18;18.70;;;6.78;;
32780;SDS011;19136;47.032;15.502;2023-02-22T07:44:43;21.02;;;7.22;;
32780;SDS011;19136;47.032;15.502;2023-02-22T07:47:09;18.95;;;7.07;;
32780;SDS011;19136;47.032;15.502;2023-02-22T07:49:37;15.10;;;5.53;;
32780;SDS011;19136;47.032;15.502;2023-02-22T07:52:02;12.68;;;6.03;;
32780;SDS011;19136;47.032;15.502;2023-02-22T07:54:28;18.88;;;7.38;;
32780;SDS011;19136;47.032;15.502;2023-02-22T07:56:53;16.95;;;5.75;;
32780;SDS011;19136;47.032;15.502;2023-02-22T07:59:19;13.80;;;6.22;;
32780;SDS011;19136;47.032;15.502;2023-02-22T08:01:47;19.63;;;6.60;;
32780;SDS011;19136;47.032;15.502;2023-02-22T08:04:14;16.00;;;6.45;;
32780;SDS011;19136;47.032;15.502;2023-02-22T08:06:39;21.35;;;6.20;;
32780;SDS011;19136;47.032;15.502;2023-02-22T08:09:05;12.95;;;5.82;;
32780;SDS011;19136;47.032;15.502;2023-02-22T08:11:30;15.75;;;6.10;;
32780;SDS011;19136;47.032;15.502;2023-02-22T08:13:56;17.35;;;5.78;;
32780;SDS011;19136;47.032;15.502;2023-02-22T08:16:21;18.45;;;6.88;;
32780;SDS011;19136;47.032;15.502;2023-02-22T08:18:47;16.00;;;6.25;;
32780;SDS011;19136;47.032;15.502;2023-02-22T08:21:12;14.30;;;6.97;;
32780;SDS011;19136;47.032;15.502;2023-02-22T08:23:38;15.32;;;6.40;;
32780;SDS011;19136;47.032;15.502;2023-02-22T08:26:07;17.67;;;7.38;;
32780;SDS011;19136;47.032;15.502;2023-02-22T08:28:34;16.52;;;7.45;;
32780;SDS011;19136;47.032;15.502;2023-02-22T08:30:59;16.83;;;7.43;;
32780;SDS011;19136;47.032;15.502;2023-02-22T08:33:25;18.42;;;7.30;;
32780;SDS011;19136;47.032;15.502;2023-02-22T08:35:51;12.82;;;7.32;;
32780;SDS011;19136;47.032;15.502;2023-02-22T08:38:24;16.48;;;6.57;;
32780;SDS011;19136;47.032;15.502;2023-02-22T08:40:51;17.92;;;7.28;;
32780;SDS011;19136;47.032;15.502;2023-02-22T08:43:17;19.38;;;6.80;;
32780;SDS011;19136;47.032;15.502;2023-02-22T08:45:44;15.98;;;6.90;;
32780;SDS011;19136;47.032;15.502;2023-02-22T08:48:10;13.65;;;6.72;;
32780;SDS011;19136;47.032;15.502;2023-02-22T08:50:36;14.75;;;7.68;;
32780;SDS011;19136;47.032;15.502;2023-02-22T08:53:03;19.35;;;7.47;;
32780;SDS011;19136;47.032;15.502;2023-02-22T08:55:30;19.83;;;7.57;;
32780;SDS011;19136;47.032;15.502;2023-02-22T08:57:58;16.35;;;7.57;;
32780;SDS011;19136;47.032;15.502;2023-02-22T09:00:36;22.60;;;6.80;;
32780;SDS011;19136;47.032;15.502;2023-02-22T09:03:03;19.75;;;7.75;;
32780;SDS011;19136;47.032;15.502;2023-02-22T09:05:29;27.13;;;7.97;;
32780;SDS011;19136;47.032;15.502;2023-02-22T09:07:55;23.30;;;8.10;;
32780;SDS011;19136;47.032;15.502;2023-02-22T09:10:25;24.63;;;7.85;;
32780;SDS011;19136;47.032;15.502;2023-02-22T09:12:52;14.40;;;7.22;;
32780;SDS011;19136;47.032;15.502;2023-02-22T09:15:21;34.30;;;8.75;;
32780;SDS011;19136;47.032;15.502;2023-02-22T09:17:48;24.55;;;8.48;;
32780;SDS011;19136;47.032;15.502;2023-02-22T09:20:16;38.45;;;10.45;;
32780;SDS011;19136;47.032;15.502;2023-02-22T09:22:43;45.60;;;9.65;;
32780;SDS011;19136;47.032;15.502;2023-02-22T09:25:09;27.55;;;9.63;;
32780;SDS011;19136;47.032;15.502;2023-02-22T09:27:35;34.55;;;9.32;;
32780;SDS011;19136;47.032;15.502;2023-02-22T09:30:03;31.98;;;11.30;;
32780;SDS011;19136;47.032;15.502;2023-02-22T09:32:29;25.58;;;10.95;;
32780;SDS011;19136;47.032;15.502;2023-02-22T09:34:54;17.98;;;9.55;;
32780;SDS011;19136;47.032;15.502;2023-02-22T09:37:20;22.17;;;9.63;;
32780;SDS011;19136;47.032;15.502;2023-02-22T09:39:45;20.45;;;9.60;;
32780;SDS011;19136;47.032;15.502;2023-02-22T09:42:27;20.13;;;9.55;;
32780;SDS011;19136;47.032;15.502;2023-02-22T09:47:51;19.40;;;9.48;;
32780;SDS011;19136;47.032;15.502;2023-02-22T09:50:21;18.25;;;8.73;;
32780;SDS011;19136;47.032;15.502;2023-02-22T09:55:35;15.95;;;8.63;;
32780;SDS011;19136;47.032;15.502;2023-02-22T09:58:51;18.00;;;8.25;;
32780;SDS011;19136;47.032;15.502;2023-02-22T10:04:00;18.45;;;9.48;;
32780;SDS011;19136;47.032;15.502;2023-02-22T10:06:28;18.15;;;8.52;;
32780;SDS011;19136;47.032;15.502;2023-02-22T10:08:54;14.68;;;7.90;;
32780;SDS011;19136;47.032;15.502;2023-02-22T10:27:24;13.73;;;6.97;;
32780;SDS011;19136;47.032;15.502;2023-02-22T10:29:57;15.70;;;6.90;;
32780;SDS011;19136;47.032;15.502;2023-02-22T10:32:30;14.32;;;6.32;;
32780;SDS011;19136;47.032;15.502;2023-02-22T10:34:59;13.20;;;6.60;;
32780;SDS011;19136;47.032;15.502;2023-02-22T10:37:32;12.43;;;5.70;;
32780;SDS011;19136;47.032;15.502;2023-02-22T10:42:36;11.68;;;4.80;;
32780;SDS011;19136;47.032;15.502;2023-02-22T10:45:02;10.82;;;5.70;;
32780;SDS011;19136;47.032;15.502;2023-02-22T10:47:28;11.38;;;4.57;;
32780;SDS011;19136;47.032;15.502;2023-02-22T10:49:55;11.18;;;5.00;;
32780;SDS011;19136;47.032;15.502;2023-02-22T10:52:24;10.43;;;4.85;;
32780;SDS011;19136;47.032;15.502;2023-02-22T10:54:55;11.50;;;5.05;;
32780;SDS011;19136;47.032;15.502;2023-02-22T10:57:32;10.73;;;4.43;;
32780;SDS011;19136;47.032;15.502;2023-02-22T11:03:04;14.63;;;5.17;;
32780;SDS011;19136;47.032;15.502;2023-02-22T11:05:41;11.85;;;4.88;;
32780;SDS011;19136;47.032;15.502;2023-02-22T11:08:14;15.15;;;6.68;;
32780;SDS011;19136;47.032;15.502;2023-02-22T11:10:49;13.75;;;6.00;;
32780;SDS011;19136;47.032;15.502;2023-02-22T11:13:24;11.23;;;6.05;;
32780;SDS011;19136;47.032;15.502;2023-02-22T11:15:59;16.38;;;8.32;;
32780;SDS011;19136;47.032;15.502;2023-02-22T11:18:32;14.20;;;6.70;;
32780;SDS011;19136;47.032;15.502;2023-02-22T11:20:59;14.35;;;5.53;;
32780;SDS011;19136;47.032;15.502;2023-02-22T11:23:32;12.70;;;6.38;;
32780;SDS011;19136;47.032;15.502;2023-02-22T11:26:00;21.38;;;7.47;;
32780;SDS011;19136;47.032;15.502;2023-02-22T11:28:28;14.23;;;6.45;;
32780;SDS011;19136;47.032;15.502;2023-02-22T11:30:56;12.15;;;6.40;;
32780;SDS011;19136;47.032;15.502;2023-02-22T11:33:23;13.25;;;6.75;;
32780;SDS011;19136;47.032;15.502;2023-02-22T11:35:56;14.15;;;7.07;;
32780;SDS011;19136;47.032;15.502;2023-02-22T11:38:27;15.27;;;7.35;;
32780;SDS011;19136;47.032;15.502;2023-02-22T11:43:42;16.73;;;8.07;;
32780;SDS011;19136;47.032;15.502;2023-02-22T11:46:13;14.02;;;7.68;;
32780;SDS011;19136;47.032;15.502;2023-02-22T11:48:53;15.32;;;7.88;;
32780;SDS011;19136;47.032;15.502;2023-02-22T11:54:30;16.25;;;8.50;;
32780;SDS011;19136;47.032;15.502;2023-02-22T12:05:39;20.55;;;10.43;;
32780;SDS011;19136;47.032;15.502;2023-02-22T12:16:35;17.65;;;8.75;;
32780;SDS011;19136;47.032;15.502;2023-02-22T12:19:36;20.17;;;11.30;;
32780;SDS011;19136;47.032;15.502;2023-02-22T12:22:08;20.13;;;10.82;;
32780;SDS011;19136;47.032;15.502;2023-02-22T12:24:45;22.40;;;11.43;;
32780;SDS011;19136;47.032;15.502;2023-02-22T12:27:17;27.08;;;9.65;;
32780;SDS011;19136;47.032;15.502;2023-02-22T12:29:49;19.67;;;10.27;;
32780;SDS011;19136;47.032;15.502;2023-02-22T12:38:01;22.75;;;11.02;;
32780;SDS011;19136;47.032;15.502;2023-02-22T12:40:49;19.77;;;10.18;;
32780;SDS011;19136;47.032;15.502;2023-02-22T12:57:38;16.50;;;8.95;;
32780;SDS011;19136;47.032;15.502;2023-02-22T12:59:46;25.30;;;10.98;;
32780;SDS011;19136;47.032;15.502;2023-02-22T13:02:27;20.08;;;9.85;;
32780;SDS011;19136;47.032;15.502;2023-02-22T13:04:55;20.40;;;9.90;;
32780;SDS011;19136;47.032;15.502;2023-02-22T13:23:46;16.98;;;9.07;;
32780;SDS011;19136;47.032;15.502;2023-02-22T13:26:46;22.35;;;8.75;;
32780;SDS011;19136;47.032;15.502;2023-02-22T13:29:16;17.35;;;9.30;;
32780;SDS011;19136;47.032;15.502;2023-02-22T13:40:11;25.48;;;9.88;;
32780;SDS011;19136;47.032;15.502;2023-02-22T13:43:13;28.42;;;9.77;;
32780;SDS011;19136;47.032;15.502;2023-02-22T13:45:58;19.08;;;9.55;;
32780;SDS011;19136;47.032;15.502;2023-02-22T13:54:02;20.42;;;9.75;;
32780;SDS011;19136;47.032;15.502;2023-02-22T13:56:32;18.05;;;9.45;;
32780;SDS011;19136;47.032;15.502;2023-02-22T13:58:58;19.55;;;10.50;;
32780;SDS011;19136;47.032;15.502;2023-02-22T14:01:44;17.15;;;8.90;;
32780;SDS011;19136;47.032;15.502;2023-02-22T14:06:56;18.17;;;9.48;;
32780;SDS011;19136;47.032;15.502;2023-02-22T14:15:18;15.32;;;8.35;;
32780;SDS011;19136;47.032;15.502;2023-02-22T14:17:49;15.55;;;8.73;;
32780;SDS011;19136;47.032;15.502;2023-02-22T14:20:26;17.42;;;8.85;;
32780;SDS011;19136;47.032;15.502;2023-02-22T14:22:57;15.60;;;9.35;;
32780;SDS011;19136;47.032;15.502;2023-02-22T14:25:48;16.98;;;9.30;;
32780;SDS011;19136;47.032;15.502;2023-02-22T14:31:08;15.50;;;8.77;;
32780;SDS011;19136;47.032;15.502;2023-02-22T14:39:29;17.25;;;9.57;;
32780;SDS011;19136;47.032;15.502;2023-02-22T14:42:03;21.42;;;9.73;;
32780;SDS011;19136;47.032;15.502;2023-02-22T14:44:53;16.52;;;9.25;;
32780;SDS011;19136;47.032;15.502;2023-02-22T14:47:28;15.82;;;9.20;;
32780;SDS011;19136;47.032;15.502;2023-02-22T14:50:02;17.35;;;9.70;;
32780;SDS011;19136;47.032;15.502;2023-02-22T14:52:31;20.88;;;10.20;;
32780;SDS011;19136;47.032;15.502;2023-02-22T15:00:39;25.52;;;9.82;;
32780;SDS011;19136;47.032;15.502;2023-02-22T15:06:12;28.90;;;10.45;;
32780;SDS011;19136;47.032;15.502;2023-02-22T15:14:29;24.23;;;11.35;;
32780;SDS011;19136;47.032;15.502;2023-02-22T15:17:00;20.75;;;10.88;;
32780;SDS011;19136;47.032;15.502;2023-02-22T15:19:31;20.25;;;10.32;;
32780;SDS011;19136;47.032;15.502;2023-02-22T15:22:00;21.23;;;11.05;;
32780;SDS011;19136;47.032;15.502;2023-02-22T15:24:27;17.83;;;10.45;;
32780;SDS011;19136;47.032;15.502;2023-02-22T15:26:54;26.60;;;10.38;;
32780;SDS011;19136;47.032;15.502;2023-02-22T15:29:22;18.20;;;10.52;;
32780;SDS011;19136;47.032;15.502;2023-02-22T15:31:50;25.08;;;11.32;;
32780;SDS011;19136;47.032;15.502;2023-02-22T15:34:18;23.95;;;12.15;;
32780;SDS011;19136;47.032;15.502;2023-02-22T15:36:50;21.45;;;11.55;;
32780;SDS011;19136;47.032;15.502;2023-02-22T15:39:24;18.98;;;10.98;;
32780;SDS011;19136;47.032;15.502;2023-02-22T15:42:15;21.90;;;11.93;;
32780;SDS011;19136;47.032;15.502;2023-02-22T15:44:54;28.20;;;11.65;;
32780;SDS011;19136;47.032;15.502;2023-02-22T15:47:25;29.17;;;12.82;;
32780;SDS011;19136;47.032;15.502;2023-02-22T15:53:00;26.70;;;13.15;;
32780;SDS011;19136;47.032;15.502;2023-02-22T15:55:35;33.72;;;12.98;;
32780;SDS011;19136;47.032;15.502;2023-02-22T15:58:07;22.27;;;12.50;;
32780;SDS011;19136;47.032;15.502;2023-02-22T16:00:35;37.00;;;12.98;;
32780;SDS011;19136;47.032;15.502;2023-02-22T16:03:03;24.27;;;14.05;;
32780;SDS011;19136;47.032;15.502;2023-02-22T16:05:37;26.48;;;13.95;;
32780;SDS011;19136;47.032;15.502;2023-02-22T16:13:28;33.20;;;14.80;;
32780;SDS011;19136;47.032;15.502;2023-02-22T16:15:59;33.05;;;15.60;;
32780;SDS011;19136;47.032;15.502;2023-02-22T16:18:31;28.48;;;14.95;;
32780;SDS011;19136;47.032;15.502;2023-02-22T16:21:09;30.48;;;14.50;;
32780;SDS011;19136;47.032;15.502;2023-02-22T16:23:44;30.45;;;14.32;;
32780;SDS011;19136;47.032;15.502;2023-02-22T16:26:21;34.38;;;15.32;;
32780;SDS011;19136;47.032;15.502;2023-02-22T16:31:21;33.10;;;14.32;;
32780;SDS011;19136;47.032;15.502;2023-02-22T16:33:49;37.20;;;14.27;;
32780;SDS011;19136;47.032;15.502;2023-02-22T16:36:16;35.38;;;17.52;;
32780;SDS011;19136;47.032;15.502;2023-02-22T16:38:42;29.85;;;14.57;;
32780;SDS011;19136;47.032;15.502;2023-02-22T16:41:12;37.30;;;17.90;;
32780;SDS011;19136;47.032;15.502;2023-02-22T16:43:44;41.88;;;17.95;;
32780;SDS011;19136;47.032;15.502;2023-02-22T16:46:11;40.95;;;19.35;;
32780;SDS011;19136;47.032;15.502;2023-02-22T16:48:38;34.50;;;16.25;;
32780;SDS011;19136;47.032;15.502;2023-02-22T16:51:16;35.60;;;16.45;;
32780;SDS011;19136;47.032;15.502;2023-02-22T16:53:46;35.63;;;15.63;;
32780;SDS011;19136;47.032;15.502;2023-02-22T16:56:13;32.33;;;13.40;;
32780;SDS011;19136;47.032;15.502;2023-02-22T16:58:41;32.20;;;13.98;;
32780;SDS011;19136;47.032;15.502;2023-02-22T17:01:07;26.63;;;13.75;;
32780;SDS011;19136;47.032;15.502;2023-02-22T17:03:33;30.58;;;13.23;;
32780;SDS011;19136;47.032;15.502;2023-02-22T17:05:59;31.88;;;13.18;;
32780;SDS011;19136;47.032;15.502;2023-02-22T17:08:25;37.75;;;13.65;;
32780;SDS011;19136;47.032;15.502;2023-02-22T17:10:50;40.10;;;12.95;;
32780;SDS011;19136;47.032;15.502;2023-02-22T17:13:22;35.47;;;14.60;;
32780;SDS011;19136;47.032;15.502;2023-02-22T17:15:49;32.78;;;14.95;;
32780;SDS011;19136;47.032;15.502;2023-02-22T17:18:16;36.72;;;14.30;;
32780;SDS011;19136;47.032;15.502;2023-02-22T17:20:46;31.00;;;15.00;;
32780;SDS011;19136;47.032;15.502;2023-02-22T17:23:13;35.92;;;16.15;;
32780;SDS011;19136;47.032;15.502;2023-02-22T17:25:43;40.38;;;16.90;;
32780;SDS011;19136;47.032;15.502;2023-02-22T17:28:10;39.20;;;17.35;;
32780;SDS011;19136;47.032;15.502;2023-02-22T17:30:37;36.55;;;15.35;;